• Join FlightAware (Why Join?)
  • Login
  • US Flag 
09:44PM EDT


 

Airport Tracker/Info


-or-


 

Live Flight TrackerFlight Track Log ✈ N4137F ✈ 04-Mar-2014 ✈ KFPR - KCRG

Flight Track Log - Related Links

Times and Time Zones

All times are in EST time to prevent confusion due to time zone crossing. See the N4137F flight status page for this flight to view local times or setup timezone preferences in your user account.

Time Position Orientation Groundspeed Altitude Reporting Facility
EST Latitude Longitude Course Direction KTS MPH feet Rate Location/Type
02:16PM 27.5053 -80.3244 76° East 112 129 900  Level Miami Center
02:17PM 27.5100 -80.3036 76° East 79 91 1,400 420 Climbing Miami Center
02:18PM 27.5211 -80.2758 66° East 79 91 1,800 540 Climbing Miami Center
02:19PM 27.5461 -80.2742 North 74 85 2,500 600 Climbing Miami Center
02:20PM 27.5731 -80.2867 338° Northwest 89 102 3,000 480 Climbing Miami Center
02:21PM 27.5958 -80.2919 348° North 94 108 3,500 420 Climbing Miami Center
02:22PM 27.6206 -80.2997 344° North 94 108 3,900 180 Climbing Miami Center
02:23PM 27.6536 -80.3194 332° Northwest 105 121 3,900 180 Level Miami Center
02:24PM 27.6867 -80.3369 335° Northwest 115 132 4,300 360 Climbing Miami Center
02:25PM 27.7153 -80.3542 332° Northwest 115 132 4,700 240 Climbing Miami Center
02:26PM 27.7667 -80.3833 333° Northwest 127 146 5,000 120 Climbing Orlando TRACON
02:27PM 27.8000 -80.4000 336° Northwest 136 157 5,100  Climbing Orlando TRACON
02:28PM 27.8333 -80.4167 336° Northwest 138 159 5,100  Level Orlando TRACON
02:29PM 27.8667 -80.4333 336° Northwest 137 158 5,100  Level Orlando TRACON
02:30PM 27.9000 -80.4667 319° Northwest 137 158 5,100  Level Orlando TRACON
02:31PM 27.9333 -80.5000 319° Northwest 136 157 5,100  Level Orlando TRACON
02:32PM 27.9500 -80.5167 319° Northwest 139 160 5,100  Level Orlando TRACON
02:33PM 27.9833 -80.5333 336° Northwest 140 161 5,100  Level Orlando TRACON
02:34PM 28.0167 -80.5667 319° Northwest 139 160 5,100  Level Orlando TRACON
02:35PM 28.0500 -80.5833 336° Northwest 139 160 5,100  Level Orlando TRACON
02:36PM 28.0833 -80.6167 319° Northwest 138 159 5,100  Level Orlando TRACON
02:37PM 28.1167 -80.6333 336° Northwest 141 162 5,100  Level Orlando TRACON
02:38PM 28.1667 -80.6500 344° North 145 167 5,100  Level Orlando TRACON
02:39PM 28.2000 -80.6667 336° Northwest 140 161 5,100  Level Orlando TRACON
02:40PM 28.2333 -80.6833 336° Northwest 146 168 5,100  Level Orlando TRACON
02:41PM 28.2667 -80.7000 336° Northwest 138 159 5,100  Level Orlando TRACON
02:42PM 28.3000 -80.7000 360° North 144 166 5,100  Level Orlando TRACON
02:43PM 28.3333 -80.7167 336° Northwest 141 162 5,100  Level Orlando TRACON
02:44PM 28.3833 -80.7333 344° North 138 159 5,100  Level Orlando TRACON
02:45PM 28.4167 -80.7500 336° Northwest 137 158 5,100  Level Orlando TRACON
02:46PM 28.4500 -80.7667 336° Northwest 144 166 5,100  Level Orlando TRACON
02:47PM 28.4833 -80.7833 336° Northwest 147 169 5,100  Level Orlando TRACON
02:48PM 28.5333 -80.8000 344° North 143 165 5,100  Level Orlando TRACON
02:49PM 28.5667 -80.8000 360° North 146 168 5,100  Level Orlando TRACON
02:50PM 28.6000 -80.8167 336° Northwest 146 168 5,100  Level Orlando TRACON
02:51PM 28.6333 -80.8333 336° Northwest 146 168 5,100  Level Orlando TRACON
02:52PM 28.6833 -80.8500 344° North 145 167 5,100  Level Orlando TRACON
02:53PM 28.7333 -80.8667 344° North 150 173 5,100  Level Orlando TRACON
02:55PM 28.7917 -80.8978 335° Northwest 144 166 5,100  Level Jacksonville Center
02:56PM 28.8297 -80.9136 340° North 149 171 5,100  Level Jacksonville Center
02:57PM 28.8758 -80.9294 343° North 146 168 5,100  Level Jacksonville Center
02:58PM 28.9114 -80.9475 336° Northwest 145 167 5,100  Level Jacksonville Center
02:59PM 28.9619 -80.9633 345° North 151 174 5,100  Level Jacksonville Center
03:00PM 28.9892 -80.9744 340° North 148 170 5,100  Level Jacksonville Center
03:01PM 29.0269 -80.9881 343° North 148 170 5,100  Level Jacksonville Center
03:02PM 29.0817 -81.0133 338° Northwest 151 174 5,100  Level Jacksonville Center
03:03PM 29.1150 -81.0244 344° North 151 174 5,100  Level Jacksonville Center
03:04PM 29.1572 -81.0428 339° North 151 174 5,100  Level Jacksonville Center
03:05PM 29.1969 -81.0586 341° North 145 167 5,100  Level Jacksonville Center
03:06PM 29.2306 -81.0722 341° North 147 169 5,100  Level Jacksonville Center
03:07PM 29.2706 -81.0881 341° North 148 170 5,100  Level Jacksonville Center
03:08PM 29.3083 -81.1017 343° North 147 169 5,100  Level Jacksonville Center
03:10PM 29.3586 -81.1247 338° Northwest 145 167 5,100  Level Jacksonville Center
03:11PM 29.3944 -81.1358 345° North 145 167 5,100  Level Jacksonville Center
03:11PM 29.4278 -81.1497 340° North 144 166 5,100  Level Jacksonville Center
03:12PM 29.4636 -81.1633 342° North 143 165 5,100  Level Jacksonville Center
03:13PM 29.5014 -81.1769 343° North 143 165 5,100  Level Jacksonville Center
03:15PM 29.5433 -81.1931 342° North 144 166 5,100  Level Jacksonville Center
03:16PM 29.5853 -81.2114 339° North 145 167 5,100  Level Jacksonville Center
03:17PM 29.6189 -81.2275 337° Northwest 145 167 5,100  Level Jacksonville Center
03:17PM 29.6442 -81.2342 347° North 146 168 5,100  Level Jacksonville Center
03:18PM 29.6775 -81.2481 340° North 148 170 5,100  Level Jacksonville Center
03:19PM 29.7153 -81.2617 343° North 148 170 5,100  Level Jacksonville Center
03:20PM 29.7553 -81.2800 338° Northwest 146 168 5,100  Level Jacksonville Center
03:21PM 29.7889 -81.2917 343° North 146 168 5,100  Level Jacksonville Center
03:22PM 29.8308 -81.3075 342° North 149 171 5,100  Level Jacksonville Center
03:23PM 29.8706 -81.3261 338° Northwest 151 174 5,100  Level Jacksonville Center
03:24PM 29.9125 -81.3422 342° North 146 168 5,100 -300 Level Jacksonville Center
03:25PM 29.9525 -81.3631 336° Northwest 165 190 4,600 -420 Descending Jacksonville Center
03:26PM 29.9967 -81.3769 345° North 164 189 4,400 -360 Descending Jacksonville Center
03:27PM 30.0383 -81.3739 North 164 189 4,000 -480 Descending Jacksonville Center
03:28PM 30.0839 -81.3561 19° North 163 188 3,500 -600 Descending Jacksonville Center
03:29PM 30.1300 -81.3581 358° North 174 200 2,800 -600 Descending Jacksonville Center
03:30PM 30.1736 -81.3547 North 159 183 2,400 -360 Descending Jacksonville Center
03:31PM 30.2197 -81.3686 345° North 149 171 2,100 -240 Descending Jacksonville Center
03:32PM 30.2392 -81.4067 301° West 141 162 2,000 -60 Descending Jacksonville Center
03:33PM 30.2664 -81.4328 320° Northwest 125 144 2,000 -300 Level Jacksonville Center
03:34PM 30.2878 -81.4589 313° West 102 117 1,400 -600 Descending Jacksonville Center
03:35PM 30.3047 -81.4825 310° West 90 104 800 -540 Descending Jacksonville Center
03:36PM 30.3217 -81.5042 312° West 89 102 400 -420 Descending Jacksonville Center
03:38PM 30.3333 -81.5000 350° North  Level FlightAware Approximate
03:45PM 30.3363 -81.5144 350° North  Level Estimated